createdAt,value
2017-03-29T00:00:14.752Z,63.39
2017-03-29T00:01:14.781Z,63.48
2017-03-29T00:02:14.733Z,64.24
2017-03-29T00:03:14.724Z,63.96
2017-03-29T00:04:14.718Z,64.02
2017-03-29T00:05:14.708Z,64.21
2017-03-29T00:06:14.736Z,64.21
2017-03-29T00:07:14.690Z,64.97
2017-03-29T00:08:14.682Z,64.69
2017-03-29T00:09:14.677Z,64.78
2017-03-29T00:10:14.665Z,65.25
2017-03-29T00:11:14.656Z,65.35
2017-03-29T00:12:14.648Z,65.16
2017-03-29T00:13:14.638Z,64.87
2017-03-29T00:14:14.630Z,65.25
2017-03-29T00:15:14.625Z,65.35
2017-03-29T00:16:14.612Z,65.54
2017-03-29T00:17:14.605Z,66.39
2017-03-29T00:18:14.596Z,66.59
2017-03-29T00:19:14.586Z,66.78
2017-03-29T00:20:14.579Z,66.97
2017-03-29T00:21:14.571Z,66.68
2017-03-29T00:22:14.574Z,66.78
2017-03-29T00:23:14.552Z,66.97
2017-03-29T00:24:14.542Z,67.63
2017-03-29T00:25:14.533Z,67.07
2017-03-29T00:26:14.532Z,67.35
2017-03-29T00:27:14.520Z,67.44
2017-03-29T00:28:14.506Z,67.63
2017-03-29T00:29:14.499Z,67.82
2017-03-29T00:30:14.489Z,67.35
2017-03-29T00:31:14.482Z,67.82
2017-03-29T00:32:14.472Z,67.63
2017-03-29T00:33:14.462Z,67.44
2017-03-29T00:34:14.454Z,68.59
2017-03-29T00:35:14.445Z,68.11
2017-03-29T00:36:14.436Z,68.59
2017-03-29T00:37:14.429Z,68.27
2017-03-29T00:38:14.417Z,68.65
2017-03-29T00:39:14.410Z,68.65
2017-03-29T00:40:14.401Z,69.21
2017-03-29T00:41:14.392Z,68.65
2017-03-29T00:42:14.384Z,69.5
2017-03-29T00:43:14.373Z,69.31
2017-03-29T00:44:14.367Z,69.31
2017-03-29T00:45:14.356Z,69.12
2017-03-29T00:46:14.347Z,69.98
2017-03-29T00:47:14.339Z,69.69
2017-03-29T00:48:14.327Z,70.36
2017-03-29T00:49:14.319Z,69.88
2017-03-29T00:50:14.011Z,69.98
2017-03-29T00:51:14.303Z,70.07
2017-03-29T00:52:14.293Z,70.07
2017-03-29T00:53:14.283Z,70.36
2017-03-29T00:54:14.277Z,70.45
2017-03-29T00:55:14.268Z,70.64
2017-03-29T00:56:13.954Z,70.64
2017-03-29T00:57:14.247Z,70.54
2017-03-29T00:58:14.239Z,70.64
2017-03-29T00:59:14.229Z,70.83
2017-03-29T01:00:13.917Z,71.02
2017-03-29T01:01:14.212Z,71.22
2017-03-29T01:02:14.201Z,71.02
2017-03-29T01:03:14.192Z,71.02
2017-03-29T01:04:14.483Z,71.02
2017-03-29T01:05:14.175Z,71.02
2017-03-29T01:06:14.165Z,71.12
2017-03-29T01:07:14.157Z,71.12
2017-03-29T01:08:14.146Z,71.5
2017-03-29T01:09:14.139Z,71.59
2017-03-29T01:10:13.825Z,71.5
2017-03-29T01:11:14.122Z,71.12
2017-03-29T01:12:14.110Z,72.16
2017-03-29T01:13:14.103Z,71.5
2017-03-29T01:14:14.092Z,71.88
2017-03-29T01:15:14.084Z,71.78
2017-03-29T01:16:14.073Z,72.26
2017-03-29T01:17:14.073Z,72.55
2017-03-29T01:18:14.058Z,72.26
2017-03-29T01:19:14.047Z,72.55
2017-03-29T01:20:14.039Z,72.45
2017-03-29T01:21:14.028Z,72.55
2017-03-29T01:22:14.020Z,72.83
2017-03-29T01:23:14.008Z,73.21
2017-03-29T01:24:14.000Z,72.92
2017-03-29T01:25:13.993Z,73.02
2017-03-29T01:26:13.981Z,73.59
2017-03-29T01:27:13.974Z,73.88
2017-03-29T01:28:13.963Z,73.69
2017-03-29T01:29:13.954Z,73.69
2017-03-29T01:30:13.944Z,73.59
2017-03-29T01:31:13.934Z,73.59
2017-03-29T01:32:13.925Z,73.49
2017-03-29T01:33:13.916Z,73.59
2017-03-29T01:34:13.905Z,73.49
2017-03-29T01:35:13.898Z,73.3
2017-03-29T01:36:13.887Z,73.69
2017-03-29T01:37:13.880Z,73.69
2017-03-29T01:38:13.869Z,73.97
2017-03-29T01:39:13.859Z,74.26
2017-03-29T01:40:13.850Z,74.07
2017-03-29T01:41:13.840Z,73.88
2017-03-29T01:42:13.834Z,73.46
2017-03-29T01:43:13.822Z,74.63
2017-03-29T01:44:13.813Z,74.35
2017-03-29T01:45:13.803Z,74.54
2017-03-29T01:46:13.795Z,74.41
2017-03-29T01:47:13.784Z,74.22
2017-03-29T01:48:13.774Z,74.6
2017-03-29T01:49:13.799Z,74.69
2017-03-29T01:50:13.756Z,74.98
2017-03-29T01:51:13.748Z,74.88
2017-03-29T01:52:13.739Z,74.6
2017-03-29T01:53:13.726Z,74.98
2017-03-29T01:54:13.718Z,75.45
2017-03-29T01:55:13.708Z,75.26
2017-03-29T01:56:13.700Z,74.98
2017-03-29T01:57:13.690Z,75.45
2017-03-29T01:58:13.683Z,75.55
2017-03-29T01:59:13.673Z,74.98
2017-03-29T02:00:13.661Z,75.36
2017-03-29T02:01:13.651Z,75.17
2017-03-29T02:02:13.644Z,75.36
2017-03-29T02:03:13.635Z,75.45
2017-03-29T02:04:13.623Z,75.84
2017-03-29T02:05:13.614Z,74.79
2017-03-29T02:06:13.604Z,75.36
2017-03-29T02:07:13.593Z,75.64
2017-03-29T02:08:13.585Z,75.45
2017-03-29T02:09:13.578Z,75.45
2017-03-29T02:10:13.565Z,75.64
2017-03-29T02:11:13.555Z,76.21
2017-03-29T02:12:13.546Z,76.4
2017-03-29T02:13:13.536Z,76.12
2017-03-29T02:14:13.528Z,76.31
2017-03-29T02:15:13.519Z,75.74
2017-03-29T02:16:13.510Z,75.64
2017-03-29T02:17:13.499Z,75.36
2017-03-29T02:18:13.489Z,76.21
2017-03-29T02:19:13.478Z,75.93
2017-03-29T02:20:13.471Z,75.93
2017-03-29T02:21:13.460Z,75.84
2017-03-29T02:22:13.449Z,76.31
2017-03-29T02:23:13.442Z,76.4
2017-03-29T02:24:13.431Z,76.69
2017-03-29T02:25:13.421Z,76.31
2017-03-29T02:26:13.413Z,76.59
2017-03-29T02:27:13.403Z,76.5
2017-03-29T02:28:13.394Z,76.69
2017-03-29T02:29:13.385Z,76.78
2017-03-29T02:30:13.374Z,76.69
2017-03-29T02:31:13.367Z,76.78
2017-03-29T02:32:13.356Z,76.69
2017-03-29T02:33:13.349Z,76.31
2017-03-29T02:34:13.336Z,76.97
2017-03-29T02:35:13.327Z,76.5
2017-03-29T02:36:13.322Z,77.17
2017-03-29T02:37:13.307Z,76.88
2017-03-29T02:38:13.298Z,76.69
2017-03-29T02:39:13.286Z,76.88
2017-03-29T02:40:13.278Z,76.88
2017-03-29T02:41:13.269Z,76.78
2017-03-29T02:42:13.261Z,77.07
2017-03-29T02:43:13.248Z,77.07
2017-03-29T02:44:13.239Z,77.17
2017-03-29T02:45:13.230Z,76.78
2017-03-29T02:46:13.220Z,76.78
2017-03-29T02:47:13.210Z,76.59
2017-03-29T02:48:13.200Z,76.78
2017-03-29T02:49:13.192Z,76.59
2017-03-29T02:50:13.179Z,76.88
2017-03-29T02:51:13.172Z,76.69
2017-03-29T02:52:13.161Z,76.97
2017-03-29T02:53:13.152Z,76.97
2017-03-29T02:54:13.141Z,76.5
2017-03-29T02:55:13.133Z,76.97
2017-03-29T02:56:13.124Z,76.97
2017-03-29T02:57:13.115Z,76.88
2017-03-29T02:58:12.800Z,76.78
2017-03-29T02:59:13.094Z,76.59
2017-03-29T03:00:13.084Z,76.59
2017-03-29T03:01:13.075Z,77.07
2017-03-29T03:02:13.071Z,77.26
2017-03-29T03:03:13.055Z,77.26
2017-03-29T03:04:13.046Z,76.97
2017-03-29T03:05:13.038Z,77.73
2017-03-29T03:06:13.027Z,77.45
2017-03-29T03:07:13.017Z,76.97
2017-03-29T03:08:13.007Z,77.45
2017-03-29T03:09:12.995Z,77.64
2017-03-29T03:10:12.988Z,77.36
2017-03-29T03:11:12.979Z,78.02
2017-03-29T03:12:12.966Z,77.64
2017-03-29T03:13:12.957Z,78.02
2017-03-29T03:14:12.948Z,78.21
2017-03-29T03:15:12.939Z,78.21
2017-03-29T03:16:12.932Z,78.21
2017-03-29T03:17:12.920Z,78.11
2017-03-29T03:18:12.912Z,78.4
2017-03-29T03:19:12.900Z,78.3
2017-03-29T03:20:12.889Z,77.83
2017-03-29T03:21:12.881Z,78.02
2017-03-29T03:22:12.871Z,78.11
2017-03-29T03:23:12.859Z,78.21
2017-03-29T03:24:12.849Z,78.4
2017-03-29T03:25:12.844Z,78.02
2017-03-29T03:26:12.831Z,78.11
2017-03-29T03:27:12.821Z,77.83
2017-03-29T03:28:12.815Z,78.02
2017-03-29T03:29:12.802Z,77.92
2017-03-29T03:30:12.795Z,77.92
2017-03-29T03:31:12.784Z,77.83
2017-03-29T03:32:12.773Z,78.5
2017-03-29T03:33:12.764Z,78.69
2017-03-29T03:34:12.752Z,78.69
2017-03-29T03:35:12.743Z,78.5
2017-03-29T03:36:12.733Z,78.21
2017-03-29T03:37:12.722Z,78.69
2017-03-29T03:38:12.714Z,78.97
2017-03-29T03:39:12.703Z,78.78
2017-03-29T03:40:12.693Z,78.4
2017-03-29T03:41:12.683Z,78.97
2017-03-29T03:42:12.675Z,78.97
2017-03-29T03:43:12.663Z,78.78
2017-03-29T03:44:12.653Z,78.88
2017-03-29T03:45:12.341Z,78.78
2017-03-29T03:46:12.637Z,79.16
2017-03-29T03:47:12.625Z,79.16
2017-03-29T03:48:12.614Z,78.88
2017-03-29T03:49:12.610Z,78.97
2017-03-29T03:50:12.594Z,79.16
2017-03-29T03:51:12.585Z,79.06
2017-03-29T03:52:12.576Z,78.78
2017-03-29T03:53:12.566Z,78.69
2017-03-29T03:54:12.557Z,79.16
2017-03-29T03:55:12.546Z,78.69
2017-03-29T03:56:12.534Z,78.88
2017-03-29T03:57:12.526Z,79.16
2017-03-29T03:58:12.516Z,79.06
2017-03-29T03:59:12.506Z,79.16
2017-03-29T04:00:12.497Z,78.97
2017-03-29T04:01:12.486Z,78.78
2017-03-29T04:02:12.477Z,78.78
2017-03-29T04:03:12.467Z,78.78
2017-03-29T04:04:12.457Z,78.88
2017-03-29T04:05:12.448Z,78.97
2017-03-29T04:06:12.441Z,78.88
2017-03-29T04:07:12.427Z,79.06
2017-03-29T04:08:12.417Z,78.78
2017-03-29T04:09:12.409Z,79.06
2017-03-29T04:10:12.399Z,79.06
2017-03-29T04:11:12.387Z,78.5
2017-03-29T04:12:12.379Z,78.78
2017-03-29T04:13:12.368Z,78.97
2017-03-29T04:14:12.055Z,78.78
2017-03-29T04:15:12.349Z,78.78
2017-03-29T04:16:12.338Z,78.97
2017-03-29T04:17:12.329Z,78.5
2017-03-29T04:18:12.320Z,78.3
2017-03-29T04:19:12.309Z,78.69
2017-03-29T04:20:12.299Z,78.78
2017-03-29T04:21:12.289Z,78.78
2017-03-29T04:22:12.279Z,78.59
2017-03-29T04:23:12.269Z,79.06
2017-03-29T04:24:12.283Z,78.78
2017-03-29T04:25:12.249Z,78.97
2017-03-29T04:26:12.240Z,78.88
2017-03-29T04:27:12.230Z,78.78
2017-03-29T04:28:12.220Z,78.97
2017-03-29T04:29:12.211Z,78.78
2017-03-29T04:30:11.898Z,79.06
2017-03-29T04:31:11.887Z,78.69
2017-03-29T04:32:12.182Z,78.5
2017-03-29T04:33:12.169Z,78.78
2017-03-29T04:34:12.160Z,78.3
2017-03-29T04:35:12.152Z,78.59
2017-03-29T04:36:12.149Z,78.5
2017-03-29T04:37:12.131Z,78.59
2017-03-29T04:38:12.121Z,78.59
2017-03-29T04:39:12.112Z,78.4
2017-03-29T04:40:12.108Z,78.5
2017-03-29T04:41:12.096Z,78.4
2017-03-29T04:42:12.083Z,77.92
2017-03-29T04:43:12.075Z,78.02
2017-03-29T04:44:12.063Z,78.02
2017-03-29T04:45:12.053Z,77.92
2017-03-29T04:46:12.044Z,78.06
2017-03-29T04:47:12.034Z,78.44
2017-03-29T04:48:12.023Z,78.44
2017-03-29T04:49:12.014Z,78.06
2017-03-29T04:50:12.006Z,77.68
2017-03-29T04:51:11.692Z,77.68
2017-03-29T04:52:11.986Z,77.3
2017-03-29T04:53:11.976Z,77.2
2017-03-29T04:54:11.970Z,77.49
2017-03-29T04:55:11.957Z,77.11
2017-03-29T04:56:11.953Z,76.73
2017-03-29T04:57:11.941Z,76.82
2017-03-29T04:58:11.928Z,76.92
2017-03-29T04:59:11.918Z,77.2
2017-03-29T05:00:11.909Z,77.01
2017-03-29T05:01:11.901Z,76.54
2017-03-29T05:02:11.890Z,76.54
2017-03-29T05:03:11.883Z,76.16
2017-03-29T05:04:11.871Z,76.54
2017-03-29T05:05:11.862Z,76.35
2017-03-29T05:06:11.854Z,75.87
2017-03-29T05:07:11.848Z,76.39
2017-03-29T05:08:11.531Z,75.62
2017-03-29T05:09:11.826Z,75.81
2017-03-29T05:10:11.511Z,75.34
2017-03-29T05:11:11.807Z,74.77
2017-03-29T05:12:11.807Z,74.58
2017-03-29T05:13:11.788Z,74.48
2017-03-29T05:14:11.779Z,74.2
2017-03-29T05:15:11.771Z,73.91
2017-03-29T05:16:11.460Z,74.24
2017-03-29T05:17:11.751Z,73.76
2017-03-29T05:18:11.745Z,73.38
2017-03-29T05:19:11.734Z,73
2017-03-29T05:20:11.724Z,72.71
2017-03-29T05:21:11.715Z,72.62
2017-03-29T05:22:11.707Z,72.52
2017-03-29T05:23:11.699Z,72.52
2017-03-29T05:24:11.690Z,72.05
2017-03-29T05:25:11.682Z,72.05
2017-03-29T05:26:11.673Z,72.33
2017-03-29T05:27:11.663Z,71.38
2017-03-29T05:28:11.655Z,71.57
2017-03-29T05:29:11.646Z,71.42
2017-03-29T05:30:11.644Z,71.09
2017-03-29T05:31:11.630Z,71.22
2017-03-29T05:32:11.621Z,70.75
2017-03-29T05:33:11.615Z,70.65
2017-03-29T05:34:11.605Z,70.75
2017-03-29T05:35:11.594Z,70.37
2017-03-29T05:36:11.587Z,70.84
2017-03-29T05:37:11.582Z,70.56
2017-03-29T05:38:11.572Z,69.79
2017-03-29T05:39:11.563Z,69.51
2017-03-29T05:40:11.555Z,69.7
2017-03-29T05:41:11.547Z,69.79
2017-03-29T05:42:11.539Z,69.42
2017-03-29T05:43:11.530Z,68.84
2017-03-29T05:44:11.522Z,69.51
2017-03-29T05:45:11.517Z,68.98
2017-03-29T05:46:11.506Z,68.78
2017-03-29T05:47:11.498Z,68.88
2017-03-29T05:48:11.488Z,68.4
2017-03-29T05:49:11.482Z,68.3
2017-03-29T05:50:11.472Z,68.3
2017-03-29T05:51:11.469Z,68.12
2017-03-29T05:52:11.459Z,68.02
2017-03-29T05:53:11.450Z,67.74
2017-03-29T05:54:11.139Z,68.3
2017-03-29T05:55:11.434Z,67.74
2017-03-29T05:56:11.426Z,67.45
2017-03-29T05:57:11.418Z,67.35
2017-03-29T05:58:11.410Z,67.58
2017-03-29T05:59:11.404Z,67.29
2017-03-29T06:00:11.394Z,67.58
2017-03-29T06:01:11.389Z,67.2
2017-03-29T06:02:11.381Z,66.72
2017-03-29T06:03:11.372Z,67
2017-03-29T06:04:11.366Z,66.34
2017-03-29T06:05:11.358Z,66.24
2017-03-29T06:06:11.349Z,66.34
2017-03-29T06:07:11.343Z,66.53
2017-03-29T06:08:11.337Z,66.72
2017-03-29T06:09:11.327Z,65.96
2017-03-29T06:10:11.319Z,65.77
2017-03-29T06:11:11.314Z,65.61
2017-03-29T06:12:11.304Z,65.8
2017-03-29T06:13:11.298Z,65.89
2017-03-29T06:14:11.291Z,65.61
2017-03-29T06:15:11.284Z,65.7
2017-03-29T06:16:11.276Z,65.42
2017-03-29T06:17:11.270Z,65.52
2017-03-29T06:18:11.262Z,65.52
2017-03-29T06:19:11.255Z,65.52
2017-03-29T06:20:11.248Z,64.65
2017-03-29T06:21:11.241Z,65.04
2017-03-29T06:22:11.235Z,64.56
2017-03-29T06:23:11.228Z,64.09
2017-03-29T06:24:11.220Z,64.12
2017-03-29T06:25:11.221Z,64.21
2017-03-29T06:26:11.206Z,63.83
2017-03-29T06:27:11.205Z,63.73
2017-03-29T06:28:11.193Z,63.83
2017-03-29T06:29:11.187Z,63.54
2017-03-29T06:30:11.179Z,63.73
2017-03-29T06:31:11.174Z,63.26
2017-03-29T06:32:11.165Z,63.35
2017-03-29T06:33:11.159Z,62.78
2017-03-29T06:34:11.154Z,62.78
2017-03-29T06:35:11.149Z,62.81
2017-03-29T06:36:11.143Z,62.62
2017-03-29T06:37:11.135Z,62.71
2017-03-29T06:38:11.128Z,62.62
2017-03-29T06:39:11.123Z,62.62
2017-03-29T06:40:11.117Z,61.95
2017-03-29T06:41:11.110Z,62.15
2017-03-29T06:42:11.105Z,61.95
2017-03-29T06:43:11.096Z,61.57
2017-03-29T06:44:11.091Z,61.95
2017-03-29T06:45:11.087Z,62.24
2017-03-29T06:46:10.776Z,61.95
2017-03-29T06:47:11.076Z,61.57
2017-03-29T06:48:11.067Z,61.76
2017-03-29T06:49:11.062Z,61.95
2017-03-29T06:50:11.057Z,61.95
2017-03-29T06:51:11.051Z,61.86
2017-03-29T06:52:11.044Z,62.34
2017-03-29T06:53:11.038Z,62.62
2017-03-29T06:54:11.235Z,61.89
2017-03-29T06:55:11.635Z,61.32
2017-03-29T06:56:11.024Z,60.96
2017-03-29T06:58:11.013Z,59.66
2017-03-29T06:59:11.011Z,59.11
2017-03-29T07:00:11.004Z,58.56
2017-03-29T07:01:11.002Z,57.04
2017-03-29T07:02:10.997Z,55.34
2017-03-29T07:03:10.994Z,55.08
2017-03-29T07:04:11.125Z,54.15
2017-03-29T07:05:11.130Z,54.05
2017-03-29T07:06:10.683Z,52.64
2017-03-29T07:07:10.987Z,51.23
2017-03-29T07:08:10.986Z,50.29
2017-03-29T07:09:10.985Z,49.05
2017-03-29T07:10:10.984Z,46.77
2017-03-29T07:11:10.990Z,46.79
2017-03-29T07:12:10.985Z,46.31
2017-03-29T07:13:10.988Z,46.53
2017-03-29T07:14:10.988Z,45.39
2017-03-29T07:15:10.990Z,44.55
2017-03-29T07:16:11.041Z,43.49
2017-03-29T07:17:10.995Z,42.84
2017-03-29T07:18:10.998Z,42.28
2017-03-29T07:19:11.005Z,41.14
2017-03-29T07:20:11.004Z,40.28
2017-03-29T07:21:11.008Z,40.2
2017-03-29T07:22:11.014Z,38.46
2017-03-29T07:23:11.017Z,38.29
2017-03-29T07:24:10.721Z,38.02
2017-03-29T07:25:11.030Z,37.35
2017-03-29T07:26:11.033Z,36.77
2017-03-29T07:27:11.044Z,36.38
2017-03-29T07:28:11.049Z,36
2017-03-29T07:29:11.051Z,34.66
2017-03-29T07:30:11.056Z,34.66
2017-03-29T07:31:11.070Z,34.78
2017-03-29T07:32:11.071Z,34.58
2017-03-29T07:33:11.076Z,34.58
2017-03-29T07:34:11.082Z,34.6
2017-03-29T07:35:11.090Z,34.5
2017-03-29T07:36:11.096Z,34.5
2017-03-29T07:37:11.103Z,34.21
2017-03-29T07:38:11.109Z,33.34
2017-03-29T07:39:11.118Z,33.15
2017-03-29T07:40:11.125Z,34.21
2017-03-29T07:41:11.128Z,34.41
2017-03-29T07:42:11.140Z,34.58
2017-03-29T07:43:11.141Z,34.58
2017-03-29T07:44:11.148Z,34.58
2017-03-29T07:45:11.152Z,34.39
2017-03-29T07:46:11.159Z,34.66
2017-03-29T07:47:11.164Z,35.63
2017-03-29T07:48:11.170Z,35.9
2017-03-29T07:49:10.872Z,36.59
2017-03-29T07:50:11.182Z,35.9
2017-03-29T07:51:11.185Z,36.38
2017-03-29T07:52:10.888Z,36.67
2017-03-29T07:53:10.901Z,36.57
2017-03-29T07:54:11.230Z,36.48
2017-03-29T07:55:11.207Z,36.48
2017-03-29T07:56:11.212Z,36.87
2017-03-29T07:57:11.217Z,36.09
2017-03-29T07:58:11.220Z,35.8
2017-03-29T07:59:11.226Z,35.92
2017-03-29T08:00:11.255Z,36.57
2017-03-29T08:01:11.234Z,36
2017-03-29T08:02:11.240Z,36.4
2017-03-29T08:03:11.244Z,36.87
2017-03-29T08:04:11.248Z,37.06
2017-03-29T08:05:11.256Z,37.17
2017-03-29T08:06:11.259Z,37.17
2017-03-29T08:07:11.263Z,35.82
2017-03-29T08:08:11.269Z,35.72
2017-03-29T08:09:11.273Z,35.92
2017-03-29T08:10:10.975Z,36.01
2017-03-29T08:11:11.284Z,36.3
2017-03-29T08:12:11.288Z,36.4
2017-03-29T08:13:11.293Z,37.08
2017-03-29T08:14:11.297Z,37.25
2017-03-29T08:15:11.303Z,36.98
2017-03-29T08:16:11.308Z,36.87
2017-03-29T08:17:11.011Z,37.25
2017-03-29T08:18:11.321Z,37.25
2017-03-29T08:19:11.320Z,37.35
2017-03-29T08:20:11.326Z,37.63
2017-03-29T08:21:11.330Z,37.63
2017-03-29T08:22:11.366Z,37.06
2017-03-29T08:23:11.338Z,37.25
2017-03-29T08:24:11.343Z,37.06
2017-03-29T08:25:11.345Z,37.63
2017-03-29T08:26:11.353Z,37.54
2017-03-29T08:27:11.353Z,36.96
2017-03-29T08:28:11.361Z,37.43
2017-03-29T08:29:11.360Z,37.13
2017-03-29T08:30:11.362Z,37.52
2017-03-29T08:31:11.364Z,37.79
2017-03-29T08:32:11.368Z,37.6
2017-03-29T08:33:11.372Z,37.98
2017-03-29T08:34:11.374Z,37.7
2017-03-29T08:35:11.379Z,38.06
2017-03-29T08:36:11.377Z,38.45
2017-03-29T08:37:11.380Z,38.26
2017-03-29T08:38:11.382Z,38.74
2017-03-29T08:39:11.382Z,38.62
2017-03-29T08:40:11.284Z,38.62
2017-03-29T08:41:11.390Z,39.2
2017-03-29T08:42:11.386Z,38.91
2017-03-29T08:43:11.390Z,39.29
2017-03-29T08:44:11.392Z,38.72
2017-03-29T08:45:11.088Z,38.31
2017-03-29T08:46:11.090Z,38.7
2017-03-29T08:47:11.393Z,38.7
2017-03-29T08:48:11.394Z,38.87
2017-03-29T08:49:11.092Z,39.16
2017-03-29T08:50:11.395Z,39.45
2017-03-29T08:51:11.401Z,39.06
2017-03-29T08:52:11.094Z,39.26
2017-03-29T08:53:11.398Z,38.87
2017-03-29T08:54:11.397Z,39.45
2017-03-29T08:55:11.399Z,39.74
2017-03-29T08:56:11.398Z,39.45
2017-03-29T08:57:11.398Z,39.36
2017-03-29T08:58:11.398Z,38.87
2017-03-29T08:59:11.400Z,38.59
2017-03-29T09:00:11.398Z,38.99
2017-03-29T09:01:11.401Z,38.29
2017-03-29T09:02:11.400Z,38.99
2017-03-29T09:03:11.399Z,38.49
2017-03-29T09:04:11.399Z,38.79
2017-03-29T09:05:11.400Z,38.6
2017-03-29T09:06:11.401Z,38.12
2017-03-29T09:07:11.403Z,37.93
2017-03-29T09:08:11.400Z,38.14
2017-03-29T09:09:11.403Z,37.76
2017-03-29T09:10:11.402Z,37.46
2017-03-29T09:11:11.402Z,37.46
2017-03-29T09:12:11.403Z,37.27
2017-03-29T09:13:11.403Z,37.27
2017-03-29T09:14:11.405Z,37.19
2017-03-29T09:15:11.405Z,37.29
2017-03-29T09:16:11.407Z,37.68
2017-03-29T09:17:11.409Z,36.91
2017-03-29T09:18:11.408Z,36.73
2017-03-29T09:19:11.411Z,37.12
2017-03-29T09:20:11.410Z,37.12
2017-03-29T09:21:11.413Z,37.13
2017-03-29T09:22:11.414Z,37.12
2017-03-29T09:23:11.420Z,36.75
2017-03-29T09:24:11.417Z,37.23
2017-03-29T09:25:11.419Z,36.94
2017-03-29T09:26:11.119Z,37.12
2017-03-29T09:27:11.423Z,37.31
2017-03-29T09:28:11.425Z,37.02
2017-03-29T09:29:11.427Z,37.31
2017-03-29T09:30:11.427Z,37.41
2017-03-29T09:31:11.429Z,37.6
2017-03-29T09:32:11.433Z,37.6
2017-03-29T09:33:11.431Z,37.6
2017-03-29T09:34:11.434Z,37.89
2017-03-29T09:35:11.434Z,37.7
2017-03-29T09:36:11.436Z,37.98
2017-03-29T09:37:11.437Z,38.18
2017-03-29T09:38:11.439Z,38.08
2017-03-29T09:39:11.444Z,38.26
2017-03-29T09:40:11.443Z,38.45
2017-03-29T09:41:11.442Z,38.45
2017-03-29T09:42:11.443Z,38.83
2017-03-29T09:43:11.443Z,38.93
2017-03-29T09:44:11.443Z,39.39
2017-03-29T09:45:11.444Z,39.01
2017-03-29T09:46:11.447Z,40.07
2017-03-29T09:47:11.445Z,39.97
2017-03-29T09:48:11.142Z,40.16
2017-03-29T09:49:11.448Z,40.45
2017-03-29T09:50:11.448Z,40.34
2017-03-29T09:51:11.455Z,41.01
2017-03-29T09:52:11.449Z,40.81
2017-03-29T09:53:11.454Z,41.08
2017-03-29T09:54:11.449Z,40.89
2017-03-29T09:55:11.448Z,41.38
2017-03-29T09:56:11.146Z,41.18
2017-03-29T09:57:11.449Z,41.28
2017-03-29T09:58:11.145Z,41.08
2017-03-29T09:59:11.448Z,41.18
2017-03-29T10:00:11.449Z,41.08
2017-03-29T10:01:11.451Z,40.7
2017-03-29T10:02:11.451Z,40.89
2017-03-29T10:03:11.447Z,40.89
2017-03-29T10:04:11.450Z,40.99
2017-03-29T10:05:11.447Z,40.8
2017-03-29T10:06:11.146Z,40.7
2017-03-29T10:07:11.448Z,40.7
2017-03-29T10:08:11.448Z,40.61
2017-03-29T10:09:11.453Z,40.89
2017-03-29T10:10:11.452Z,40.7
2017-03-29T10:11:11.450Z,40.51
2017-03-29T10:12:11.447Z,40.31
2017-03-29T10:13:11.445Z,40.12
2017-03-29T10:14:11.445Z,40.24
2017-03-29T10:15:11.449Z,40.22
2017-03-29T10:16:11.447Z,40.89
2017-03-29T10:17:11.444Z,40.51
2017-03-29T10:18:11.446Z,40.89
2017-03-29T10:19:11.444Z,40.89
2017-03-29T10:20:11.443Z,41.08
2017-03-29T10:21:11.444Z,41.08
2017-03-29T10:22:11.448Z,41.28
2017-03-29T10:23:11.444Z,41.35
2017-03-29T10:24:11.443Z,41.64
2017-03-29T10:25:11.446Z,41.74
2017-03-29T10:26:11.442Z,41.93
2017-03-29T10:27:11.441Z,41.93
2017-03-29T10:28:11.445Z,42.41
2017-03-29T10:29:11.441Z,42.5
2017-03-29T10:30:11.440Z,42.5
2017-03-29T10:31:11.441Z,43.16
2017-03-29T10:32:11.439Z,43.07
2017-03-29T10:33:11.439Z,43.26
2017-03-29T10:34:11.438Z,43.45
2017-03-29T10:35:11.433Z,43.84
2017-03-29T10:36:11.433Z,43.81
2017-03-29T10:37:11.431Z,43.81
2017-03-29T10:38:11.430Z,44.2
2017-03-29T10:39:11.429Z,44.29
2017-03-29T10:40:11.429Z,44.48
2017-03-29T10:41:11.427Z,44.75
2017-03-29T10:42:11.424Z,44.94
2017-03-29T10:43:11.423Z,45.23
2017-03-29T10:44:11.118Z,45.23
2017-03-29T10:45:11.424Z,45.61
2017-03-29T10:46:11.419Z,45.81
2017-03-29T10:47:11.415Z,46.07
2017-03-29T10:48:11.413Z,45.98
2017-03-29T10:49:11.411Z,46.45
2017-03-29T10:50:11.410Z,46.17
2017-03-29T10:51:11.406Z,46.84
2017-03-29T10:52:11.406Z,46.36
2017-03-29T10:53:11.402Z,46.45
2017-03-29T10:54:11.403Z,46.65
2017-03-29T10:55:11.401Z,46.84
2017-03-29T10:56:11.396Z,46.74
2017-03-29T10:57:11.395Z,46.74
2017-03-29T10:58:11.392Z,46.55
2017-03-29T10:59:11.392Z,46.65
2017-03-29T11:00:11.391Z,46.74
2017-03-29T11:01:11.386Z,47.39
2017-03-29T11:02:11.384Z,47.2
2017-03-29T11:03:11.385Z,47.49
2017-03-29T11:04:11.074Z,47.58
2017-03-29T11:05:11.382Z,47.87
2017-03-29T11:06:11.374Z,47.68
2017-03-29T11:07:11.372Z,47.97
2017-03-29T11:08:11.366Z,48.16
2017-03-29T11:09:11.365Z,47.58
2017-03-29T11:10:11.058Z,48.07
2017-03-29T11:11:11.569Z,47.97
2017-03-29T11:12:11.056Z,47.77
2017-03-29T11:13:11.053Z,48.35
2017-03-29T11:14:11.353Z,47.99
2017-03-29T11:15:11.349Z,48.35
2017-03-29T11:16:11.347Z,48.35
2017-03-29T11:17:11.345Z,48.54
2017-03-29T11:18:11.343Z,48.35
2017-03-29T11:19:11.341Z,49.12
2017-03-29T11:20:11.339Z,49.21
2017-03-29T11:21:11.336Z,49.21
2017-03-29T11:22:11.332Z,49.5
2017-03-29T11:23:11.329Z,49.48
2017-03-29T11:24:11.326Z,49.76
2017-03-29T11:25:11.327Z,50.34
2017-03-29T11:26:11.349Z,50.24
2017-03-29T11:27:11.318Z,50.43
2017-03-29T11:28:11.315Z,50.84
2017-03-29T11:29:11.313Z,51.1
2017-03-29T11:30:11.308Z,51.14
2017-03-29T11:31:11.308Z,50.84
2017-03-29T11:32:11.307Z,51.14
2017-03-29T11:33:11.300Z,51.04
2017-03-29T11:34:11.301Z,50.75
2017-03-29T11:35:11.298Z,50.56
2017-03-29T11:36:11.293Z,51.14
2017-03-29T11:37:11.289Z,51.32
2017-03-29T11:38:10.984Z,51.32
2017-03-29T11:39:11.285Z,51.61
2017-03-29T11:40:11.283Z,51.51
2017-03-29T11:41:11.278Z,51.51
2017-03-29T11:42:11.283Z,51.14
2017-03-29T11:43:11.275Z,51.32
2017-03-29T11:44:11.273Z,51.23
2017-03-29T11:45:11.267Z,51.42
2017-03-29T11:46:11.266Z,52.38
2017-03-29T11:47:11.264Z,52.83
2017-03-29T11:48:11.271Z,53.12
2017-03-29T11:49:11.260Z,54.08
2017-03-29T11:50:11.256Z,53.41
2017-03-29T11:51:11.253Z,53.31
2017-03-29T11:52:11.250Z,53.31
2017-03-29T11:53:11.247Z,53.31
2017-03-29T11:54:11.245Z,52.95
2017-03-29T11:55:11.242Z,52.76
2017-03-29T11:56:11.238Z,52.86
2017-03-29T11:57:11.237Z,52.86
2017-03-29T11:58:11.234Z,52.86
2017-03-29T11:59:11.235Z,53.05
2017-03-29T12:00:11.230Z,52.95
2017-03-29T12:01:11.226Z,52.95
2017-03-29T12:02:11.231Z,52.57
2017-03-29T12:03:11.221Z,52.28
2017-03-29T12:04:10.916Z,52.28
2017-03-29T12:05:11.219Z,52.76
2017-03-29T12:06:11.212Z,53.91
2017-03-29T12:07:11.211Z,54.66
2017-03-29T12:08:11.214Z,56.09
2017-03-29T12:09:10.903Z,57.53
2017-03-29T12:10:11.201Z,58.69
2017-03-29T12:11:11.198Z,58.94
2017-03-29T12:12:11.197Z,59.9
2017-03-29T12:13:10.891Z,59.9
2017-03-29T12:14:11.189Z,60.64
2017-03-29T12:15:11.187Z,61.11
2017-03-29T12:16:11.186Z,60.93
2017-03-29T12:17:11.181Z,61.21
2017-03-29T12:18:10.877Z,61.21
2017-03-29T12:19:11.174Z,61.69
2017-03-29T12:20:11.172Z,62.36
2017-03-29T12:21:11.167Z,62.74
2017-03-29T12:22:11.194Z,63.22
2017-03-29T12:23:11.161Z,63.51
2017-03-29T12:24:11.158Z,62.65
2017-03-29T12:25:11.154Z,62.84
2017-03-29T12:26:11.152Z,63.13
2017-03-29T12:27:11.147Z,62.74
2017-03-29T12:28:11.149Z,63.13
2017-03-29T12:29:11.140Z,63.6
2017-03-29T12:30:11.139Z,63.32
2017-03-29T12:31:11.134Z,63.51
2017-03-29T12:32:11.130Z,63.48
2017-03-29T12:33:11.125Z,63.39
2017-03-29T12:34:11.127Z,63.86
2017-03-29T12:35:11.122Z,63.96
2017-03-29T12:36:11.114Z,64.43
2017-03-29T12:37:11.112Z,64.63
2017-03-29T12:38:11.107Z,64.92
2017-03-29T12:39:11.104Z,65.11
2017-03-29T12:40:11.099Z,65.3
2017-03-29T12:41:11.096Z,65.39
2017-03-29T12:42:11.092Z,65.2
2017-03-29T12:43:11.088Z,65.3
2017-03-29T12:44:11.085Z,65.39
2017-03-29T12:45:11.081Z,65.68
2017-03-29T12:46:11.106Z,66.45
2017-03-29T12:47:11.074Z,66.54
2017-03-29T12:48:11.068Z,66.16
2017-03-29T12:49:11.069Z,65.97
2017-03-29T12:50:11.061Z,66.83
2017-03-29T12:51:11.059Z,67.5
2017-03-29T12:52:11.057Z,67.41
2017-03-29T12:53:10.748Z,67.98
2017-03-29T12:54:10.743Z,68.17
2017-03-29T12:55:11.042Z,67.98
2017-03-29T12:56:11.066Z,68.46